Time;durP1;ratioP1;P1;durP2;ratioP2;P2;SDS_P1;SDS_P2;PMS_P1;PMS_P2;Temp;Humidity;BMP_temperature;BMP_pressure;BME280_temperature;BME280_humidity;BME280_pressure;Samples;Min_cycle;Max_cycle;Signal;HPM_P1;HPM_P2
2023/08/30 00:00:45;;;;;;;3.88;1.92;;;14.60;99.90;;;;;;5091678;28;20656;-55
2023/08/30 00:03:13;;;;;;;4.38;1.90;;;14.60;99.90;;;;;;5086323;28;20207;-56
2023/08/30 00:05:41;;;;;;;10.32;1.80;;;14.60;99.90;;;;;;5091379;28;20224;-55
2023/08/30 00:08:09;;;;;;;2.75;1.95;;;14.70;99.90;;;;;;5091560;28;20281;-57
2023/08/30 00:10:39;;;;;;;3.22;2.20;;;14.60;99.90;;;;;;5079776;28;20220;-56
2023/08/30 00:13:06;;;;;;;1.90;1.80;;;14.70;99.90;;;;;;5082960;28;20684;-55
2023/08/30 00:15:34;;;;;;;2.05;1.77;;;14.70;99.90;;;;;;5084773;28;20224;-54
2023/08/30 00:18:02;;;;;;;3.60;1.70;;;14.70;99.90;;;;;;5088437;28;20269;-55
2023/08/30 00:20:30;;;;;;;5.18;2.05;;;14.70;99.90;;;;;;5078934;28;20205;-56
2023/08/30 00:22:58;;;;;;;5.85;2.40;;;14.70;99.90;;;;;;5086956;28;20740;-56
2023/08/30 00:25:26;;;;;;;4.65;2.40;;;14.70;99.90;;;;;;5086700;28;20316;-55
2023/08/30 00:27:55;;;;;;;4.97;2.42;;;14.70;99.90;;;;;;5086564;28;20313;-56
2023/08/30 00:30:23;;;;;;;6.47;2.13;;;14.70;99.90;;;;;;5081585;28;20205;-57
2023/08/30 00:32:51;;;;;;;6.07;2.55;;;14.60;99.90;;;;;;5075655;28;20210;-55
2023/08/30 00:35:19;;;;;;;2.55;2.10;;;14.60;99.90;;;;;;5085383;28;20340;-55
2023/08/30 00:37:47;;;;;;;4.40;3.10;;;14.60;99.90;;;;;;5077582;28;20197;-55
2023/08/30 00:40:15;;;;;;;7.30;3.30;;;14.60;99.90;;;;;;5085782;28;20212;-56
2023/08/30 00:42:43;;;;;;;4.47;2.70;;;14.60;99.90;;;;;;5084208;28;20208;-55
2023/08/30 00:45:12;;;;;;;3.72;2.42;;;14.60;99.90;;;;;;5086967;28;20290;-55
2023/08/30 00:47:40;;;;;;;5.60;2.92;;;14.60;99.90;;;;;;5076473;28;20227;-55
2023/08/30 00:50:09;;;;;;;3.33;2.90;;;14.60;99.90;;;;;;5081351;28;20212;-56
2023/08/30 00:52:36;;;;;;;2.97;2.85;;;14.60;99.90;;;;;;5078226;28;20282;-56
2023/08/30 00:55:05;;;;;;;4.93;3.42;;;14.60;99.90;;;;;;5081374;28;20224;-56
2023/08/30 00:57:33;;;;;;;3.42;3.13;;;14.60;99.90;;;;;;5081391;28;20292;-55
2023/08/30 01:00:01;;;;;;;4.90;3.15;;;14.60;99.90;;;;;;5079656;28;20665;-55
2023/08/30 01:02:30;;;;;;;3.67;3.40;;;14.60;99.90;;;;;;5080903;28;20197;-55
2023/08/30 01:04:58;;;;;;;5.95;3.00;;;14.60;99.90;;;;;;5077466;28;20220;-56
2023/08/30 01:07:27;;;;;;;5.22;3.60;;;14.60;99.90;;;;;;5082295;28;20249;-54
2023/08/30 01:09:55;;;;;;;7.30;3.50;;;14.60;99.90;;;;;;5082660;28;20265;-55
2023/08/30 01:12:24;;;;;;;5.90;3.53;;;14.60;99.90;;;;;;5084343;28;20274;-55
2023/08/30 01:14:54;;;;;;;4.28;3.17;;;14.60;99.90;;;;;;5085402;28;20267;-55
2023/08/30 01:17:22;;;;;;;3.58;3.30;;;14.60;99.90;;;;;;5088483;28;20287;-56
2023/08/30 01:19:55;;;;;;;4.75;3.38;;;14.60;99.90;;;;;;5080412;28;20239;-55
2023/08/30 01:22:39;;;;;;;3.58;3.30;;;14.60;99.90;;;;;;5083590;28;20201;-54
2023/08/30 01:25:13;;;;;;;3.35;2.85;;;14.60;99.90;;;;;;5080186;28;20231;-55
2023/08/30 01:27:42;;;;;;;2.95;2.65;;;14.60;99.90;;;;;;5077764;28;20324;-55
2023/08/30 01:30:11;;;;;;;4.82;3.40;;;14.70;99.90;;;;;;5080900;28;20235;-55
2023/08/30 01:32:39;;;;;;;3.50;2.80;;;14.70;99.90;;;;;;5080670;28;20201;-57
2023/08/30 01:35:07;;;;;;;5.45;2.80;;;14.70;99.90;;;;;;5085903;28;20229;-56
2023/08/30 01:37:35;;;;;;;3.70;2.95;;;14.60;99.90;;;;;;5094423;28;20233;-55
2023/08/30 01:40:04;;;;;;;3.15;2.95;;;14.60;99.90;;;;;;5094667;28;20284;-56
2023/08/30 01:42:32;;;;;;;5.57;3.30;;;14.60;99.90;;;;;;5094153;28;20279;-57
2023/08/30 01:45:02;;;;;;;4.40;3.10;;;14.60;99.90;;;;;;5087933;28;20699;-56
2023/08/30 01:47:30;;;;;;;3.05;2.90;;;14.60;99.90;;;;;;5094415;28;20668;-56
2023/08/30 01:49:58;;;;;;;7.43;2.95;;;14.60;99.90;;;;;;5094126;28;20224;-57
2023/08/30 01:52:26;;;;;;;8.68;2.97;;;14.70;99.90;;;;;;5094308;28;20634;-56
2023/08/30 01:54:54;;;;;;;3.33;3.00;;;14.70;99.90;;;;;;5093277;28;20793;-55
2023/08/30 01:57:22;;;;;;;3.90;3.38;;;14.70;99.90;;;;;;5094109;28;20582;-57
2023/08/30 01:59:50;;;;;;;4.13;3.15;;;14.70;99.90;;;;;;5094314;28;20229;-56
2023/08/30 02:02:19;;;;;;;3.80;3.13;;;14.70;99.90;;;;;;5081942;28;20201;-55
2023/08/30 02:04:47;;;;;;;3.03;2.72;;;14.70;99.90;;;;;;5092231;28;20259;-55
2023/08/30 02:07:17;;;;;;;5.50;3.20;;;14.70;99.90;;;;;;5094084;28;20201;-57
2023/08/30 02:09:49;;;;;;;7.40;3.60;;;14.70;99.90;;;;;;5088596;28;20225;-57
2023/08/30 02:12:17;;;;;;;4.60;3.25;;;14.70;99.90;;;;;;5079321;28;20233;-56
2023/08/30 02:14:46;;;;;;;3.88;3.58;;;14.70;99.90;;;;;;5080781;28;20359;-56
2023/08/30 02:17:15;;;;;;;5.10;3.45;;;14.70;99.90;;;;;;5080927;28;20961;-57
2023/08/30 02:19:44;;;;;;;5.05;3.40;;;14.70;99.90;;;;;;5086735;28;20280;-55
2023/08/30 02:22:12;;;;;;;9.30;3.72;;;14.70;99.90;;;;;;5079392;28;20217;-57
2023/08/30 02:24:40;;;;;;;5.35;3.15;;;14.70;99.90;;;;;;5079246;28;20224;-55
2023/08/30 02:27:08;;;;;;;5.40;3.47;;;14.70;99.90;;;;;;5081139;28;20701;-56
2023/08/30 02:29:36;;;;;;;4.80;3.45;;;14.70;99.90;;;;;;5080523;28;20345;-55
2023/08/30 02:32:05;;;;;;;3.67;3.35;;;14.70;99.90;;;;;;5087329;28;20208;-57
2023/08/30 02:34:33;;;;;;;2.97;2.80;;;14.70;99.90;;;;;;5086623;28;21069;-55
2023/08/30 02:37:02;;;;;;;3.80;3.50;;;14.70;99.90;;;;;;5092544;28;20641;-56
2023/08/30 02:39:30;;;;;;;3.78;3.47;;;14.70;99.90;;;;;;5093398;28;20280;-55
2023/08/30 02:41:58;;;;;;;4.00;3.70;;;14.70;99.90;;;;;;5084340;28;20240;-56
2023/08/30 02:44:26;;;;;;;6.43;3.58;;;14.70;99.90;;;;;;5076564;28;20302;-55
2023/08/30 02:46:54;;;;;;;3.67;3.47;;;14.70;99.90;;;;;;5081192;28;20656;-56
2023/08/30 02:49:21;;;;;;;5.10;3.70;;;14.70;99.90;;;;;;5088388;28;20613;-57
2023/08/30 02:51:49;;;;;;;6.88;3.40;;;14.70;99.90;;;;;;5085957;28;20328;-56
2023/08/30 02:54:18;;;;;;;5.97;3.17;;;14.80;99.90;;;;;;5087138;28;20241;-56
2023/08/30 02:56:46;;;;;;;3.55;3.25;;;14.80;99.90;;;;;;5086250;28;20205;-56
2023/08/30 02:59:14;;;;;;;4.07;2.65;;;14.80;99.90;;;;;;5085520;28;20207;-57
2023/08/30 03:01:43;;;;;;;5.72;3.00;;;14.70;99.90;;;;;;5084625;28;20259;-55
2023/08/30 03:04:10;;;;;;;3.83;2.65;;;14.70;99.90;;;;;;5085539;28;20204;-54
2023/08/30 03:06:38;;;;;;;2.95;2.75;;;14.70;99.90;;;;;;5088157;28;20201;-56
2023/08/30 03:09:07;;;;;;;5.88;2.88;;;14.70;99.90;;;;;;5090484;28;20661;-56
2023/08/30 03:11:37;;;;;;;5.93;2.58;;;14.70;99.90;;;;;;5078781;28;20201;-55
2023/08/30 03:14:05;;;;;;;8.73;2.40;;;14.70;99.90;;;;;;5085477;28;20236;-56
2023/08/30 03:16:33;;;;;;;3.63;2.47;;;14.70;99.90;;;;;;5077896;28;21358;-55
2023/08/30 03:19:00;;;;;;;2.53;2.38;;;14.70;99.90;;;;;;5091187;28;20258;-55
2023/08/30 03:21:28;;;;;;;2.92;2.70;;;14.70;99.90;;;;;;5091161;28;20337;-56
2023/08/30 03:23:56;;;;;;;7.03;2.40;;;14.70;99.90;;;;;;5088553;28;20671;-56
2023/08/30 03:26:24;;;;;;;3.40;3.10;;;14.60;99.90;;;;;;5087537;28;20229;-55
2023/08/30 03:28:53;;;;;;;2.97;2.80;;;14.60;99.90;;;;;;5087608;28;20311;-55
2023/08/30 03:31:22;;;;;;;6.00;2.40;;;14.60;99.90;;;;;;5084387;28;20304;-56
2023/08/30 03:33:50;;;;;;;5.45;3.00;;;14.60;99.90;;;;;;5084140;28;20243;-56
2023/08/30 03:36:18;;;;;;;3.83;2.95;;;14.60;99.90;;;;;;5089279;28;20247;-56
2023/08/30 03:38:46;;;;;;;3.22;2.85;;;14.50;99.90;;;;;;5092569;28;20281;-55
2023/08/30 03:41:14;;;;;;;2.90;2.70;;;14.50;99.90;;;;;;5086160;28;20204;-54
2023/08/30 03:43:42;;;;;;;2.80;2.60;;;14.60;99.90;;;;;;5082989;28;20212;-56
2023/08/30 03:46:11;;;;;;;5.63;2.90;;;14.50;99.90;;;;;;5081840;28;20546;-55
2023/08/30 03:48:40;;;;;;;6.50;3.28;;;14.60;99.90;;;;;;5080496;28;20221;-56
2023/08/30 03:51:08;;;;;;;3.88;2.88;;;14.50;99.90;;;;;;5079340;28;20236;-56
2023/08/30 03:53:36;;;;;;;4.53;3.35;;;14.50;99.90;;;;;;5081183;28;20204;-56
2023/08/30 03:56:04;;;;;;;8.13;3.60;;;14.50;99.90;;;;;;5083170;28;20251;-56
2023/08/30 03:58:33;;;;;;;3.63;3.40;;;14.50;99.90;;;;;;5076960;28;20205;-55
2023/08/30 04:01:00;;;;;;;3.67;3.38;;;14.50;99.90;;;;;;5074662;28;20205;-56
2023/08/30 04:03:30;;;;;;;8.00;4.22;;;14.50;99.90;;;;;;5076618;28;20298;-56
2023/08/30 04:05:58;;;;;;;4.40;4.10;;;14.50;99.90;;;;;;5084130;28;20366;-56
2023/08/30 04:08:26;;;;;;;4.50;3.20;;;14.50;99.90;;;;;;5091198;28;20288;-56
2023/08/30 04:10:54;;;;;;;3.25;3.00;;;14.60;99.90;;;;;;5089891;28;20303;-55
2023/08/30 04:13:22;;;;;;;3.67;3.35;;;14.60;99.90;;;;;;5077899;28;20213;-56
2023/08/30 04:15:50;;;;;;;5.38;4.35;;;14.60;99.90;;;;;;5075191;28;20315;-55
2023/08/30 04:18:17;;;;;;;4.80;4.13;;;14.60;99.90;;;;;;5081484;28;20262;-56
2023/08/30 04:20:47;;;;;;;5.35;4.30;;;14.60;99.90;;;;;;5081637;28;20240;-56
2023/08/30 04:23:15;;;;;;;6.20;4.53;;;14.60;99.90;;;;;;5079474;28;20201;-55
2023/08/30 04:25:44;;;;;;;6.13;5.25;;;14.60;99.90;;;;;;5083435;28;20256;-56
2023/08/30 04:28:12;;;;;;;8.18;4.70;;;14.60;99.90;;;;;;5080846;28;20273;-54
2023/08/30 04:30:40;;;;;;;6.40;5.88;;;14.50;99.90;;;;;;5081270;28;20243;-53
2023/08/30 04:33:08;;;;;;;6.60;6.00;;;14.50;99.90;;;;;;5081638;28;20244;-53
2023/08/30 04:35:36;;;;;;;6.97;5.57;;;14.50;99.90;;;;;;5083269;28;20220;-53
2023/08/30 04:38:05;;;;;;;15.40;7.00;;;14.50;99.90;;;;;;5085995;28;20576;-55
2023/08/30 04:40:33;;;;;;;7.50;6.30;;;14.50;99.90;;;;;;5091027;28;20212;-54
2023/08/30 04:43:01;;;;;;;8.27;5.78;;;14.50;99.90;;;;;;5081856;28;20239;-56
2023/08/30 04:45:30;;;;;;;6.78;6.15;;;14.50;99.90;;;;;;5080550;28;20752;-58
2023/08/30 04:47:58;;;;;;;7.03;6.40;;;14.50;99.90;;;;;;5084644;28;20291;-55
2023/08/30 04:50:26;;;;;;;7.13;6.43;;;14.50;99.90;;;;;;5082403;28;20302;-55
2023/08/30 04:52:54;;;;;;;8.00;7.30;;;14.50;99.90;;;;;;5080104;28;20197;-57
2023/08/30 04:55:25;;;;;;;6.80;6.20;;;14.50;99.90;;;;;;5081709;28;20256;-53
2023/08/30 04:57:52;;;;;;;7.05;5.97;;;14.50;99.90;;;;;;5083698;28;20205;-54
2023/08/30 05:00:21;;;;;;;7.18;6.40;;;14.50;99.90;;;;;;5081894;28;20255;-53
2023/08/30 05:02:48;;;;;;;8.25;7.28;;;14.50;99.90;;;;;;5086739;28;20348;-54
2023/08/30 05:05:16;;;;;;;7.88;7.13;;;14.50;99.90;;;;;;5080836;28;20590;-53
2023/08/30 05:07:44;;;;;;;6.68;6.05;;;14.50;99.90;;;;;;5084488;28;20232;-54
2023/08/30 05:10:12;;;;;;;7.40;6.70;;;14.60;99.90;;;;;;5091027;28;20694;-56
2023/08/30 05:12:44;;;;;;;6.60;6.10;;;14.50;99.90;;;;;;5089017;28;20300;-57
2023/08/30 05:15:12;;;;;;;8.18;6.78;;;14.50;99.90;;;;;;5080017;28;20289;-57
2023/08/30 05:17:40;;;;;;;13.82;5.63;;;14.60;99.90;;;;;;5082145;28;20209;-61
2023/08/30 05:20:09;;;;;;;9.75;5.10;;;14.70;99.90;;;;;;5082659;28;20201;-54
2023/08/30 05:22:36;;;;;;;7.20;4.70;;;15.00;99.90;;;;;;5080331;28;20232;-56
2023/08/30 05:25:05;;;;;;;8.38;4.78;;;15.30;99.90;;;;;;5089784;28;20700;-58
2023/08/30 05:27:34;;;;;;;10.30;4.90;;;15.40;99.90;;;;;;5085844;28;20751;-58
2023/08/30 05:30:03;;;;;;;5.63;4.32;;;15.60;99.90;;;;;;5088995;28;20303;-59
2023/08/30 05:32:32;;;;;;;7.20;4.82;;;15.70;99.90;;;;;;5084862;28;20244;-57
2023/08/30 05:35:00;;;;;;;5.47;4.43;;;15.70;99.90;;;;;;5086147;28;20227;-56
2023/08/30 05:37:28;;;;;;;6.28;4.75;;;15.80;99.90;;;;;;5087591;28;20204;-56
2023/08/30 05:39:57;;;;;;;5.68;5.03;;;15.80;99.90;;;;;;5088909;28;20232;-59
2023/08/30 05:42:25;;;;;;;10.00;5.28;;;15.80;99.90;;;;;;5090235;28;20208;-57
2023/08/30 05:44:54;;;;;;;7.28;5.00;;;15.80;99.90;;;;;;5090294;28;20216;-60
2023/08/30 05:47:23;;;;;;;5.25;4.57;;;15.80;99.90;;;;;;5090507;28;20672;-57
2023/08/30 05:49:51;;;;;;;6.55;5.40;;;15.80;99.90;;;;;;5090814;28;20312;-58
2023/08/30 05:52:19;;;;;;;5.32;4.85;;;15.90;99.90;;;;;;5091560;28;20208;-55
2023/08/30 05:54:47;;;;;;;7.63;5.15;;;16.00;99.90;;;;;;5094839;28;20739;-57
2023/08/30 05:57:15;;;;;;;6.35;5.85;;;16.00;99.90;;;;;;5093956;28;20679;-56
2023/08/30 05:59:42;;;;;;;5.25;4.78;;;15.90;99.90;;;;;;5094194;28;20235;-55
2023/08/30 06:02:10;;;;;;;7.75;5.68;;;15.90;99.90;;;;;;5089903;28;20665;-56
2023/08/30 06:04:40;;;;;;;6.03;5.18;;;16.00;99.90;;;;;;5087571;28;20780;-56
2023/08/30 06:07:08;;;;;;;7.65;5.85;;;16.00;99.90;;;;;;5089797;28;20306;-55
2023/08/30 06:09:36;;;;;;;6.25;5.45;;;16.10;99.90;;;;;;5091083;28;20232;-57
2023/08/30 06:12:05;;;;;;;6.57;6.07;;;16.10;99.90;;;;;;5088905;28;20707;-57
2023/08/30 06:14:33;;;;;;;9.25;7.10;;;16.20;99.90;;;;;;5093628;28;20252;-57
2023/08/30 06:17:00;;;;;;;8.40;6.60;;;16.20;99.90;;;;;;5093331;28;20664;-60
2023/08/30 06:19:28;;;;;;;7.07;6.43;;;16.10;99.90;;;;;;5084961;28;20733;-57
2023/08/30 06:21:58;;;;;;;8.52;6.57;;;16.10;99.90;;;;;;5093340;28;20714;-57
2023/08/30 06:24:25;;;;;;;9.88;7.40;;;16.00;99.90;;;;;;5089667;28;20228;-56
2023/08/30 06:26:53;;;;;;;8.88;6.78;;;16.00;99.90;;;;;;5092778;28;20668;-56
2023/08/30 06:29:21;;;;;;;10.25;8.27;;;16.00;99.90;;;;;;5092483;28;20220;-57
2023/08/30 06:31:49;;;;;;;6.63;6.05;;;16.00;99.90;;;;;;5088982;28;20232;-57
2023/08/30 06:34:17;;;;;;;7.93;7.22;;;16.10;99.90;;;;;;5093445;28;20223;-57
2023/08/30 06:36:45;;;;;;;7.15;6.28;;;16.30;99.90;;;;;;5093200;28;20200;-55
2023/08/30 06:39:14;;;;;;;8.02;7.28;;;16.30;99.90;;;;;;5093577;28;20224;-57
2023/08/30 06:41:42;;;;;;;8.57;7.78;;;16.40;99.90;;;;;;5092968;28;20281;-56
2023/08/30 06:44:10;;;;;;;8.77;7.82;;;16.40;99.90;;;;;;5093201;28;20236;-56
2023/08/30 06:46:39;;;;;;;7.72;6.82;;;16.30;99.90;;;;;;5092453;28;20236;-58
2023/08/30 06:49:09;;;;;;;8.70;7.93;;;16.30;99.90;;;;;;5093061;28;20204;-59
2023/08/30 06:51:37;;;;;;;7.60;6.85;;;16.30;99.90;;;;;;5091412;28;20700;-58
2023/08/30 06:54:05;;;;;;;8.15;7.47;;;16.30;99.90;;;;;;5092749;28;20204;-57
2023/08/30 06:56:34;;;;;;;8.10;7.47;;;16.30;99.90;;;;;;5092334;28;20672;-56
2023/08/30 06:59:03;;;;;;;8.50;7.75;;;16.30;99.90;;;;;;5092593;28;20204;-55
2023/08/30 07:01:30;;;;;;;9.85;9.05;;;16.40;99.90;;;;;;5091700;28;20325;-57
2023/08/30 07:04:03;;;;;;;10.80;9.18;;;16.40;99.90;;;;;;5090845;28;20207;-57
2023/08/30 07:06:31;;;;;;;9.63;8.75;;;16.40;99.90;;;;;;5088906;28;20217;-57
2023/08/30 07:08:58;;;;;;;11.05;9.60;;;16.40;99.90;;;;;;5079286;28;20204;-56
2023/08/30 07:11:26;;;;;;;11.98;9.57;;;16.30;99.90;;;;;;5092386;28;20208;-58
2023/08/30 07:14:03;;;;;;;10.80;9.75;;;16.30;99.90;;;;;;5092237;28;20198;-57
2023/08/30 07:16:31;;;;;;;10.80;9.65;;;16.20;99.90;;;;;;5092275;28;20259;-57
2023/08/30 07:19:00;;;;;;;11.27;10.07;;;16.30;99.90;;;;;;5074450;28;20283;-56
2023/08/30 07:21:28;;;;;;;12.45;9.95;;;16.30;99.90;;;;;;5092057;28;20727;-56
2023/08/30 07:23:55;;;;;;;11.90;10.70;;;16.30;99.90;;;;;;5093043;28;20209;-57
2023/08/30 07:26:23;;;;;;;10.30;9.45;;;16.30;99.90;;;;;;5092370;28;20277;-56
2023/08/30 07:28:51;;;;;;;11.30;10.23;;;16.30;99.90;;;;;;5092736;28;20638;-57
2023/08/30 07:31:21;;;;;;;10.38;9.40;;;16.30;99.90;;;;;;5092306;28;20259;-56
2023/08/30 07:33:49;;;;;;;10.15;9.25;;;16.40;99.90;;;;;;5092460;28;20660;-57
2023/08/30 07:36:17;;;;;;;10.93;9.77;;;16.50;99.90;;;;;;5092263;28;20224;-59
2023/08/30 07:38:45;;;;;;;10.75;9.55;;;16.60;99.90;;;;;;5090628;28;20208;-57
2023/08/30 07:41:13;;;;;;;12.20;10.13;;;16.70;99.90;;;;;;5092389;28;20185;-58
2023/08/30 07:43:41;;;;;;;12.65;10.10;;;16.80;99.90;;;;;;5091045;28;20231;-56
2023/08/30 07:46:09;;;;;;;16.35;9.63;;;16.80;99.90;;;;;;5089903;28;20229;-57
2023/08/30 07:48:38;;;;;;;12.18;9.55;;;16.90;99.90;;;;;;5091956;28;20224;-55
2023/08/30 07:51:06;;;;;;;10.10;9.10;;;16.90;99.90;;;;;;5092466;28;20223;-57
2023/08/30 07:53:34;;;;;;;10.02;8.38;;;17.00;99.90;;;;;;5092099;28;20204;-57
2023/08/30 07:56:02;;;;;;;10.75;9.10;;;17.10;99.90;;;;;;5091460;28;20750;-56
2023/08/30 07:58:30;;;;;;;9.18;8.27;;;17.30;99.90;;;;;;5091791;28;20291;-56
2023/08/30 08:00:58;;;;;;;10.82;8.73;;;17.40;99.90;;;;;;5088237;28;20288;-58
2023/08/30 08:03:26;;;;;;;9.18;8.20;;;17.50;99.90;;;;;;5091158;28;20200;-58
2023/08/30 08:05:55;;;;;;;9.82;7.63;;;17.60;99.90;;;;;;5091559;28;20227;-58
2023/08/30 08:08:23;;;;;;;8.10;7.30;;;17.70;99.90;;;;;;5091184;28;20281;-59
2023/08/30 08:10:51;;;;;;;10.95;7.25;;;17.80;99.90;;;;;;5092062;28;20204;-57
2023/08/30 08:13:19;;;;;;;6.75;6.15;;;17.90;99.90;;;;;;5091021;28;20285;-59
2023/08/30 08:15:47;;;;;;;12.63;7.28;;;18.10;99.90;;;;;;5091426;28;20220;-58
2023/08/30 08:18:15;;;;;;;9.02;7.25;;;18.10;99.90;;;;;;5091835;28;20261;-57
2023/08/30 08:20:43;;;;;;;7.20;6.60;;;18.10;99.90;;;;;;5091638;28;20204;-57
2023/08/30 08:23:12;;;;;;;9.10;6.75;;;18.10;99.90;;;;;;5091510;28;20184;-57
2023/08/30 08:25:40;;;;;;;8.43;7.25;;;18.10;99.90;;;;;;5090610;28;20289;-59
2023/08/30 08:28:08;;;;;;;7.97;7.20;;;18.10;99.90;;;;;;5090938;28;20243;-58
2023/08/30 08:30:37;;;;;;;7.93;7.30;;;18.10;99.90;;;;;;5091469;28;20200;-58
2023/08/30 08:33:05;;;;;;;7.63;6.72;;;18.00;99.90;;;;;;5091427;28;20216;-58
2023/08/30 08:35:33;;;;;;;7.82;7.15;;;18.10;99.90;;;;;;5090926;28;20280;-58
2023/08/30 08:38:01;;;;;;;8.10;7.35;;;18.10;99.90;;;;;;5091549;28;20236;-56
2023/08/30 08:40:31;;;;;;;8.15;7.35;;;18.10;99.90;;;;;;5090825;28;20201;-58
2023/08/30 08:43:10;;;;;;;7.68;6.97;;;18.10;99.90;;;;;;5076103;28;20211;-57
2023/08/30 08:45:39;;;;;;;7.30;6.70;;;18.10;99.90;;;;;;5089148;28;20220;-57
2023/08/30 08:48:08;;;;;;;9.27;8.10;;;18.00;99.90;;;;;;5091082;28;20204;-56
2023/08/30 08:50:36;;;;;;;7.00;6.50;;;18.10;99.90;;;;;;5091461;28;20671;-56
2023/08/30 08:53:04;;;;;;;8.60;7.72;;;18.10;99.90;;;;;;5090985;28;20223;-57
2023/08/30 08:55:34;;;;;;;7.80;7.05;;;18.20;99.90;;;;;;5091187;28;20258;-57
2023/08/30 08:58:02;;;;;;;7.38;6.75;;;18.30;99.90;;;;;;5091216;28;20208;-58
2023/08/30 09:00:31;;;;;;;8.95;7.40;;;18.50;99.90;;;;;;5091352;28;20201;-58
2023/08/30 09:03:00;;;;;;;19.60;8.43;;;18.60;99.90;;;;;;5074726;28;20648;-58
2023/08/30 09:05:28;;;;;;;7.30;6.68;;;18.60;99.90;;;;;;5091147;28;20216;-56
2023/08/30 09:07:56;;;;;;;9.93;8.55;;;18.70;99.90;;;;;;5091106;28;20220;-56
2023/08/30 09:10:24;;;;;;;8.10;7.07;;;18.80;99.90;;;;;;5091226;28;20231;-57
2023/08/30 09:12:53;;;;;;;9.65;6.55;;;18.80;99.90;;;;;;5091066;28;20758;-58
2023/08/30 09:15:22;;;;;;;8.68;7.75;;;18.80;99.90;;;;;;5090744;28;20618;-58
2023/08/30 09:17:50;;;;;;;9.52;8.57;;;18.90;99.90;;;;;;5090851;28;20200;-58
2023/08/30 09:20:20;;;;;;;10.75;8.93;;;19.00;99.90;;;;;;5090591;28;20261;-58
2023/08/30 09:22:49;;;;;;;10.77;8.10;;;19.20;99.90;;;;;;5091041;28;20204;-58
2023/08/30 09:25:24;;;;;;;8.65;7.90;;;19.30;99.90;;;;;;5090731;28;20251;-57
2023/08/30 09:27:57;;;;;;;9.50;7.47;;;19.40;99.90;;;;;;5094898;28;20294;-58
2023/08/30 09:30:26;;;;;;;9.70;8.32;;;19.50;99.90;;;;;;5093947;28;20208;-58
2023/08/30 09:32:54;;;;;;;8.07;7.40;;;19.50;99.90;;;;;;5094235;28;20768;-58
2023/08/30 09:35:22;;;;;;;7.88;7.07;;;19.40;99.90;;;;;;5094622;28;20220;-58
2023/08/30 09:37:50;;;;;;;7.28;6.63;;;19.50;99.90;;;;;;5093045;28;20235;-59
2023/08/30 09:40:20;;;;;;;7.75;7.13;;;19.50;99.90;;;;;;5093592;28;20740;-58
2023/08/30 09:42:47;;;;;;;7.93;7.22;;;19.40;99.90;;;;;;5094336;28;20291;-57
2023/08/30 09:45:31;;;;;;;8.73;7.93;;;19.60;99.90;;;;;;5094488;28;20250;-58
2023/08/30 09:47:59;;;;;;;8.00;7.25;;;19.80;99.90;;;;;;5094553;28;20196;-58
2023/08/30 09:50:27;;;;;;;7.53;6.82;;;20.00;99.90;;;;;;5094397;28;20204;-59
2023/08/30 09:52:54;;;;;;;7.07;6.47;;;20.10;99.90;;;;;;5094471;28;20266;-59
2023/08/30 09:55:22;;;;;;;8.32;7.43;;;20.30;99.90;;;;;;5094231;28;20235;-58
2023/08/30 09:57:50;;;;;;;7.07;6.30;;;20.40;99.90;;;;;;5094155;28;20904;-58
2023/08/30 10:00:19;;;;;;;5.97;5.50;;;20.60;99.90;;;;;;5094595;28;20204;-58
2023/08/30 10:02:48;;;;;;;8.95;6.32;;;21.10;99.90;;;;;;5094163;28;20204;-59
2023/08/30 10:05:36;;;;;;;6.97;6.28;;;21.20;99.90;;;;;;5096382;28;20220;-57
2023/08/30 10:08:05;;;;;;;7.28;5.45;;;21.50;99.90;;;;;;5093691;28;20211;-59
2023/08/30 10:10:33;;;;;;;5.38;4.97;;;21.80;99.90;;;;;;5094102;28;20208;-57
2023/08/30 10:13:02;;;;;;;7.22;5.57;;;22.10;99.90;;;;;;5093989;28;20219;-58
2023/08/30 10:15:38;;;;;;;5.97;5.47;;;22.30;99.90;;;;;;5093660;28;20215;-59
2023/08/30 10:18:07;;;;;;;6.63;6.13;;;22.50;99.90;;;;;;5093853;28;20226;-59
2023/08/30 10:20:35;;;;;;;6.15;5.38;;;22.60;99.90;;;;;;5093692;28;20203;-58
2023/08/30 10:23:05;;;;;;;6.15;5.65;;;22.80;99.90;;;;;;5093757;28;20656;-59
2023/08/30 10:25:34;;;;;;;6.53;5.78;;;22.90;99.90;;;;;;5093750;28;20245;-59
2023/08/30 10:28:02;;;;;;;6.13;5.53;;;23.00;99.90;;;;;;5087910;22;20222;-62
2023/08/30 10:30:30;;;;;;;4.93;4.55;;;23.10;99.90;;;;;;5033910;28;20292;-62
2023/08/30 10:32:59;;;;;;;6.15;5.28;;;23.00;99.90;;;;;;5017477;28;20254;-62
2023/08/30 10:35:28;;;;;;;4.25;3.95;;;22.80;99.90;;;;;;5033822;28;20202;-62
2023/08/30 10:37:56;;;;;;;4.10;3.80;;;22.50;99.90;;;;;;5033251;28;20713;-62
2023/08/30 10:40:24;;;;;;;4.10;3.80;;;22.60;99.90;;;;;;5033711;28;20611;-62
2023/08/30 10:43:02;;;;;;;5.53;3.92;;;23.10;99.90;;;;;;5033404;28;20289;-62
2023/08/30 10:45:31;;;;;;;7.85;3.58;;;23.50;99.90;;;;;;5032512;28;20201;-62
2023/08/30 10:47:59;;;;;;;4.53;3.70;;;24.10;99.90;;;;;;5033319;28;20226;-62
2023/08/30 10:50:33;;;;;;;3.28;3.15;;;24.30;99.90;;;;;;5033626;28;20226;-62
2023/08/30 10:53:01;;;;;;;3.25;3.00;;;24.30;99.90;;;;;;5017533;28;20218;-62
2023/08/30 10:55:29;;;;;;;3.50;3.22;;;23.90;99.90;;;;;;5033282;28;20285;-61
2023/08/30 10:58:02;;;;;;;3.08;2.88;;;23.30;99.90;;;;;;5033121;28;20226;-62
2023/08/30 11:00:31;;;;;;;4.43;3.15;;;23.00;99.90;;;;;;5033674;28;20201;-62
2023/08/30 11:02:59;;;;;;;4.05;3.65;;;22.60;99.90;;;;;;5033549;28;20194;-63
2023/08/30 11:05:27;;;;;;;3.33;3.13;;;22.10;99.90;;;;;;5033167;28;20206;-62
2023/08/30 11:07:57;;;;;;;4.55;3.63;;;21.70;99.90;;;;;;5032099;28;20717;-63
2023/08/30 11:10:25;;;;;;;3.60;3.08;;;21.40;99.90;;;;;;5032849;28;20665;-62
2023/08/30 11:12:53;;;;;;;3.45;3.25;;;21.20;99.90;;;;;;5033194;28;20260;-63
2023/08/30 11:15:21;;;;;;;3.80;3.50;;;21.00;99.90;;;;;;5031373;28;20230;-63
2023/08/30 11:17:49;;;;;;;3.40;3.30;;;20.80;99.90;;;;;;5032571;28;20222;-62
2023/08/30 11:20:19;;;;;;;3.28;3.05;;;20.70;99.90;;;;;;5032880;28;20284;-62
2023/08/30 11:22:48;;;;;;;3.67;3.30;;;20.60;99.90;;;;;;5032721;28;20221;-62
2023/08/30 11:25:17;;;;;;;3.47;3.25;;;20.60;99.90;;;;;;5032607;28;20202;-62
2023/08/30 11:27:45;;;;;;;3.22;2.78;;;20.50;99.90;;;;;;5032585;28;20233;-62
2023/08/30 11:30:13;;;;;;;3.63;3.42;;;21.10;99.90;;;;;;5033205;28;20241;-62
2023/08/30 11:32:43;;;;;;;25.63;7.38;;;21.50;99.90;;;;;;5031886;28;20209;-62
2023/08/30 11:35:11;;;;;;;4.95;3.13;;;22.20;99.90;;;;;;5031487;28;20278;-62
2023/08/30 11:37:39;;;;;;;3.50;3.20;;;22.30;99.90;;;;;;5029064;28;20225;-62
2023/08/30 11:40:09;;;;;;;4.45;3.08;;;22.10;99.90;;;;;;5027164;28;20271;-62
2023/08/30 11:42:38;;;;;;;3.00;2.78;;;21.90;99.90;;;;;;5030632;28;20206;-62
2023/08/30 11:45:07;;;;;;;3.03;2.72;;;21.70;99.90;;;;;;5029664;28;20252;-62
2023/08/30 11:47:35;;;;;;;3.88;2.90;;;21.60;99.90;;;;;;5030426;28;20341;-61
2023/08/30 11:50:03;;;;;;;4.53;3.53;;;21.70;99.90;;;;;;5029636;28;20202;-62
2023/08/30 11:52:31;;;;;;;3.13;2.72;;;21.60;99.90;;;;;;5030870;28;20673;-61
2023/08/30 11:54:59;;;;;;;3.50;3.15;;;21.60;99.90;;;;;;5031680;28;20771;-62
2023/08/30 11:57:27;;;;;;;4.10;3.70;;;21.80;99.90;;;;;;5031714;28;20305;-62
2023/08/30 11:59:56;;;;;;;6.25;3.67;;;22.50;99.90;;;;;;5032064;28;20206;-62
2023/08/30 12:02:25;;;;;;;3.60;3.30;;;23.30;99.90;;;;;;5031227;28;20649;-62
2023/08/30 12:04:53;;;;;;;3.70;3.17;;;24.00;99.90;;;;;;5031955;28;20213;-62
2023/08/30 12:07:25;;;;;;;5.10;3.08;;;24.70;99.90;;;;;;5029523;28;20295;-62
2023/08/30 12:09:54;;;;;;;4.30;2.90;;;25.20;99.90;;;;;;5025813;28;20217;-62
2023/08/30 12:12:24;;;;;;;3.03;2.83;;;25.40;99.90;;;;;;5031553;28;20229;-62
2023/08/30 12:14:57;;;;;;;3.03;2.80;;;25.60;99.90;;;;;;5029628;28;20233;-62
2023/08/30 12:17:25;;;;;;;2.88;2.67;;;26.10;99.90;;;;;;5031431;28;20277;-62
2023/08/30 12:19:58;;;;;;;3.80;2.65;;;26.30;99.90;;;;;;5030771;28;20832;-62
2023/08/30 12:22:37;;;;;;;2.88;2.30;;;26.40;99.90;;;;;;5029609;28;20898;-62
2023/08/30 12:25:05;;;;;;;4.43;2.58;;;26.50;99.90;;;;;;5015247;28;20816;-62
2023/08/30 12:27:33;;;;;;;3.08;2.88;;;26.60;99.90;;;;;;5029971;28;20269;-62
2023/08/30 12:30:03;;;;;;;2.95;2.75;;;26.40;99.90;;;;;;5031347;28;20289;-62
2023/08/30 12:32:31;;;;;;;4.65;2.63;;;26.70;99.90;;;;;;5031080;28;20290;-63
2023/08/30 12:34:59;;;;;;;3.40;3.17;;;27.00;99.90;;;;;;5015153;28;20260;-62
2023/08/30 12:37:27;;;;;;;3.10;2.83;;;27.20;99.90;;;;;;5031420;28;20831;-62
2023/08/30 12:39:55;;;;;;;2.65;2.50;;;27.00;99.90;;;;;;5031538;28;20252;-62
2023/08/30 12:42:23;;;;;;;3.05;2.78;;;27.00;99.90;;;;;;5031705;28;20296;-62
2023/08/30 12:44:51;;;;;;;2.80;2.58;;;26.70;99.90;;;;;;5031446;28;20209;-62
2023/08/30 12:47:20;;;;;;;3.55;2.78;;;26.80;99.90;;;;;;5031448;28;20336;-62
2023/08/30 12:49:48;;;;;;;3.95;3.05;;;26.90;99.90;;;;;;5039050;28;20284;-62
2023/08/30 12:52:17;;;;;;;2.63;2.45;;;27.00;99.90;;;;;;5031352;28;20237;-62